Capitol Logistics 547




WMKK
Kuala Lumpur International Airport
Kuala Lumpur, MY
WSSS
Changi International Airport
Singapore, SG

Activity Log

Date Flight Route Aircraft Duration
No Flights Yet

Route Details

Aircraft Information
Group: Trans-Pacific Ops
Types: B744,B763,MD11
Route Data
Demand: V
Distance: 160nm
Duration: 1h 05m
Recm'd Route: RUSB1A RUSBU Y511 TOPOR A464 ARAMA ARAM1A
Origin Wx: WMKK 270530Z 30007KT 230V010 9999 SCT018 34/24 Q1008 NOSIG
Dest. Wx: WSSS 270530Z 16009KT 130V200 9999 SCT020 FEW022TCU BKN300 32/26 Q1008 NOSIG
Notes:

Financial History
Total Freight: 0lbs
Average Load: 0lbs/flt
Fuel Used: 0lbs
Avg. Fuel Used: 0lbs/flt
Fuel Expense: $0
Avg. Fuel Expense: $0
Avg. Fuel Cost: $0/lbs
Total Gross Income: $0
Pilot Pay: $0
Total Expenses: $0
Total Revenue: $0
Average Revenue: $0